sensor_id;sensor_type;location;lat;lon;timestamp;P1;durP1;ratioP1;P2;durP2;ratioP2
75169;SDS011;63749;49.186;9.222;2022-09-23T00:01:48;9.97;;;6.60;;
75169;SDS011;63749;49.186;9.222;2022-09-23T00:04:14;12.40;;;7.60;;
75169;SDS011;63749;49.186;9.222;2022-09-23T00:06:39;10.03;;;7.00;;
75169;SDS011;63749;49.186;9.222;2022-09-23T00:09:05;11.00;;;6.65;;
75169;SDS011;63749;49.186;9.222;2022-09-23T00:11:31;11.37;;;7.40;;
75169;SDS011;63749;49.186;9.222;2022-09-23T00:13:57;14.60;;;7.70;;
75169;SDS011;63749;49.186;9.222;2022-09-23T00:16:25;10.20;;;6.77;;
75169;SDS011;63749;49.186;9.222;2022-09-23T00:18:53;12.38;;;7.63;;
75169;SDS011;63749;49.186;9.222;2022-09-23T00:21:19;11.57;;;7.77;;
75169;SDS011;63749;49.186;9.222;2022-09-23T00:23:45;12.27;;;7.30;;
75169;SDS011;63749;49.186;9.222;2022-09-23T00:26:11;10.73;;;6.83;;
75169;SDS011;63749;49.186;9.222;2022-09-23T00:28:39;10.02;;;6.72;;
75169;SDS011;63749;49.186;9.222;2022-09-23T00:31:09;9.75;;;6.97;;
75169;SDS011;63749;49.186;9.222;2022-09-23T00:33:36;12.90;;;7.13;;
75169;SDS011;63749;49.186;9.222;2022-09-23T00:36:05;11.53;;;6.93;;
75169;SDS011;63749;49.186;9.222;2022-09-23T00:38:35;11.32;;;6.78;;
75169;SDS011;63749;49.186;9.222;2022-09-23T00:41:01;11.90;;;7.22;;
75169;SDS011;63749;49.186;9.222;2022-09-23T00:43:44;9.70;;;6.77;;
75169;SDS011;63749;49.186;9.222;2022-09-23T00:46:23;10.32;;;6.50;;
75169;SDS011;63749;49.186;9.222;2022-09-23T00:48:58;8.38;;;6.35;;
75169;SDS011;63749;49.186;9.222;2022-09-23T00:51:29;11.65;;;6.68;;
75169;SDS011;63749;49.186;9.222;2022-09-23T00:54:01;11.27;;;7.15;;
75169;SDS011;63749;49.186;9.222;2022-09-23T00:56:27;10.23;;;6.67;;
75169;SDS011;63749;49.186;9.222;2022-09-23T00:58:55;10.55;;;6.97;;
75169;SDS011;63749;49.186;9.222;2022-09-23T01:01:20;11.50;;;6.73;;
75169;SDS011;63749;49.186;9.222;2022-09-23T01:03:48;10.57;;;7.00;;
75169;SDS011;63749;49.186;9.222;2022-09-23T01:06:14;9.57;;;6.55;;
75169;SDS011;63749;49.186;9.222;2022-09-23T01:08:41;10.60;;;6.50;;
75169;SDS011;63749;49.186;9.222;2022-09-23T01:11:21;11.90;;;6.60;;
75169;SDS011;63749;49.186;9.222;2022-09-23T01:13:53;11.20;;;6.85;;
75169;SDS011;63749;49.186;9.222;2022-09-23T01:33:38;9.97;;;6.20;;
75169;SDS011;63749;49.186;9.222;2022-09-23T01:36:08;9.93;;;6.20;;
75169;SDS011;63749;49.186;9.222;2022-09-23T01:46:29;8.83;;;5.80;;
75169;SDS011;63749;49.186;9.222;2022-09-23T01:49:06;9.52;;;6.00;;
75169;SDS011;63749;49.186;9.222;2022-09-23T01:51:39;9.05;;;6.20;;
75169;SDS011;63749;49.186;9.222;2022-09-23T01:54:11;10.73;;;5.65;;
75169;SDS011;63749;49.186;9.222;2022-09-23T01:56:52;11.43;;;6.07;;
75169;SDS011;63749;49.186;9.222;2022-09-23T01:59:31;8.43;;;5.73;;
75169;SDS011;63749;49.186;9.222;2022-09-23T02:04:42;8.80;;;6.03;;
75169;SDS011;63749;49.186;9.222;2022-09-23T02:07:16;8.65;;;6.13;;
75169;SDS011;63749;49.186;9.222;2022-09-23T02:09:44;9.35;;;5.63;;
75169;SDS011;63749;49.186;9.222;2022-09-23T02:12:17;10.63;;;5.67;;
75169;SDS011;63749;49.186;9.222;2022-09-23T02:14:57;8.93;;;5.90;;
75169;SDS011;63749;49.186;9.222;2022-09-23T02:17:29;10.60;;;6.40;;
75169;SDS011;63749;49.186;9.222;2022-09-23T02:20:00;11.75;;;6.47;;
75169;SDS011;63749;49.186;9.222;2022-09-23T02:25:07;10.40;;;5.83;;
75169;SDS011;63749;49.186;9.222;2022-09-23T02:30:28;9.27;;;5.78;;
75169;SDS011;63749;49.186;9.222;2022-09-23T02:33:07;9.57;;;5.97;;
75169;SDS011;63749;49.186;9.222;2022-09-23T02:35:52;11.07;;;6.78;;
75169;SDS011;63749;49.186;9.222;2022-09-23T02:38:28;12.63;;;6.63;;
75169;SDS011;63749;49.186;9.222;2022-09-23T02:41:29;10.00;;;6.35;;
75169;SDS011;63749;49.186;9.222;2022-09-23T02:44:00;10.75;;;6.60;;
75169;SDS011;63749;49.186;9.222;2022-09-23T02:46:28;8.88;;;5.72;;
75169;SDS011;63749;49.186;9.222;2022-09-23T02:48:55;8.40;;;6.07;;
75169;SDS011;63749;49.186;9.222;2022-09-23T02:51:24;9.90;;;6.35;;
75169;SDS011;63749;49.186;9.222;2022-09-23T02:53:53;11.02;;;6.60;;
75169;SDS011;63749;49.186;9.222;2022-09-23T02:56:23;9.52;;;5.53;;
75169;SDS011;63749;49.186;9.222;2022-09-23T02:58:49;9.82;;;5.43;;
75169;SDS011;63749;49.186;9.222;2022-09-23T03:04:34;8.65;;;5.47;;
75169;SDS011;63749;49.186;9.222;2022-09-23T03:06:48;9.38;;;5.22;;
75169;SDS011;63749;49.186;9.222;2022-09-23T03:15:20;8.93;;;5.63;;
75169;SDS011;63749;49.186;9.222;2022-09-23T03:18:11;8.95;;;5.88;;
75169;SDS011;63749;49.186;9.222;2022-09-23T03:20:50;10.02;;;5.55;;
75169;SDS011;63749;49.186;9.222;2022-09-23T03:23:21;9.93;;;5.75;;
75169;SDS011;63749;49.186;9.222;2022-09-23T03:25:50;9.65;;;5.97;;
75169;SDS011;63749;49.186;9.222;2022-09-23T03:28:18;9.43;;;5.90;;
75169;SDS011;63749;49.186;9.222;2022-09-23T03:30:46;8.43;;;5.57;;
75169;SDS011;63749;49.186;9.222;2022-09-23T03:33:16;10.93;;;6.25;;
75169;SDS011;63749;49.186;9.222;2022-09-23T03:35:47;9.25;;;6.28;;
75169;SDS011;63749;49.186;9.222;2022-09-23T03:38:36;11.18;;;5.75;;
75169;SDS011;63749;49.186;9.222;2022-09-23T03:41:08;9.00;;;5.67;;
75169;SDS011;63749;49.186;9.222;2022-09-23T03:43:36;8.57;;;5.80;;
75169;SDS011;63749;49.186;9.222;2022-09-23T03:46:02;9.18;;;5.72;;
75169;SDS011;63749;49.186;9.222;2022-09-23T03:48:27;9.17;;;5.37;;
75169;SDS011;63749;49.186;9.222;2022-09-23T03:50:52;10.10;;;5.80;;
75169;SDS011;63749;49.186;9.222;2022-09-23T03:53:18;8.48;;;5.53;;
75169;SDS011;63749;49.186;9.222;2022-09-23T03:55:45;8.37;;;5.43;;
75169;SDS011;63749;49.186;9.222;2022-09-23T03:58:11;9.57;;;5.88;;
75169;SDS011;63749;49.186;9.222;2022-09-23T04:00:36;11.57;;;7.10;;
75169;SDS011;63749;49.186;9.222;2022-09-23T04:03:01;12.53;;;7.67;;
75169;SDS011;63749;49.186;9.222;2022-09-23T04:05:27;9.73;;;6.20;;
75169;SDS011;63749;49.186;9.222;2022-09-23T04:07:52;11.60;;;6.53;;
75169;SDS011;63749;49.186;9.222;2022-09-23T04:10:18;9.20;;;6.22;;
75169;SDS011;63749;49.186;9.222;2022-09-23T04:12:44;9.83;;;6.30;;
75169;SDS011;63749;49.186;9.222;2022-09-23T04:15:09;9.57;;;6.47;;
75169;SDS011;63749;49.186;9.222;2022-09-23T04:17:35;10.43;;;6.25;;
75169;SDS011;63749;49.186;9.222;2022-09-23T04:20:00;10.47;;;6.80;;
75169;SDS011;63749;49.186;9.222;2022-09-23T04:22:26;10.40;;;6.47;;
75169;SDS011;63749;49.186;9.222;2022-09-23T04:24:51;9.27;;;6.03;;
75169;SDS011;63749;49.186;9.222;2022-09-23T04:27:17;10.83;;;6.07;;
75169;SDS011;63749;49.186;9.222;2022-09-23T04:29:42;9.37;;;5.40;;
75169;SDS011;63749;49.186;9.222;2022-09-23T04:32:08;11.43;;;5.30;;
75169;SDS011;63749;49.186;9.222;2022-09-23T04:34:33;9.30;;;5.77;;
75169;SDS011;63749;49.186;9.222;2022-09-23T04:36:58;9.13;;;5.80;;
75169;SDS011;63749;49.186;9.222;2022-09-23T04:39:23;9.30;;;6.10;;
75169;SDS011;63749;49.186;9.222;2022-09-23T04:41:49;13.30;;;6.03;;
75169;SDS011;63749;49.186;9.222;2022-09-23T04:44:14;10.47;;;5.33;;
75169;SDS011;63749;49.186;9.222;2022-09-23T04:46:40;10.50;;;5.87;;
75169;SDS011;63749;49.186;9.222;2022-09-23T04:49:07;8.98;;;5.78;;
75169;SDS011;63749;49.186;9.222;2022-09-23T04:51:33;9.10;;;6.07;;
75169;SDS011;63749;49.186;9.222;2022-09-23T04:53:58;8.63;;;5.88;;
75169;SDS011;63749;49.186;9.222;2022-09-23T04:56:25;12.43;;;6.03;;
75169;SDS011;63749;49.186;9.222;2022-09-23T04:58:52;8.98;;;6.30;;
75169;SDS011;63749;49.186;9.222;2022-09-23T05:01:19;9.68;;;6.05;;
75169;SDS011;63749;49.186;9.222;2022-09-23T05:03:51;9.55;;;6.10;;
75169;SDS011;63749;49.186;9.222;2022-09-23T05:06:18;10.70;;;6.38;;
75169;SDS011;63749;49.186;9.222;2022-09-23T05:08:51;8.53;;;5.77;;
75169;SDS011;63749;49.186;9.222;2022-09-23T05:11:17;11.20;;;6.50;;
75169;SDS011;63749;49.186;9.222;2022-09-23T05:13:44;10.07;;;5.90;;
75169;SDS011;63749;49.186;9.222;2022-09-23T05:16:10;11.35;;;5.85;;
75169;SDS011;63749;49.186;9.222;2022-09-23T05:18:37;14.77;;;7.83;;
75169;SDS011;63749;49.186;9.222;2022-09-23T05:21:05;11.50;;;7.30;;
75169;SDS011;63749;49.186;9.222;2022-09-23T05:23:31;15.05;;;9.27;;
75169;SDS011;63749;49.186;9.222;2022-09-23T05:25:58;11.38;;;7.95;;
75169;SDS011;63749;49.186;9.222;2022-09-23T05:28:25;11.43;;;7.07;;
75169;SDS011;63749;49.186;9.222;2022-09-23T05:30:59;10.93;;;5.80;;
75169;SDS011;63749;49.186;9.222;2022-09-23T05:33:39;8.93;;;5.68;;
75169;SDS011;63749;49.186;9.222;2022-09-23T05:36:06;9.82;;;6.30;;
75169;SDS011;63749;49.186;9.222;2022-09-23T05:38:32;9.10;;;6.33;;
75169;SDS011;63749;49.186;9.222;2022-09-23T05:40:58;9.82;;;6.18;;
75169;SDS011;63749;49.186;9.222;2022-09-23T05:43:29;8.80;;;6.13;;
75169;SDS011;63749;49.186;9.222;2022-09-23T05:46:01;9.32;;;6.28;;
75169;SDS011;63749;49.186;9.222;2022-09-23T05:48:29;11.73;;;6.57;;
75169;SDS011;63749;49.186;9.222;2022-09-23T05:50:55;10.68;;;6.80;;
75169;SDS011;63749;49.186;9.222;2022-09-23T05:53:21;10.30;;;6.47;;
75169;SDS011;63749;49.186;9.222;2022-09-23T05:55:46;8.43;;;6.05;;
75169;SDS011;63749;49.186;9.222;2022-09-23T05:58:11;12.37;;;6.33;;
75169;SDS011;63749;49.186;9.222;2022-09-23T06:00:40;10.13;;;5.67;;
75169;SDS011;63749;49.186;9.222;2022-09-23T06:03:10;11.50;;;5.88;;
75169;SDS011;63749;49.186;9.222;2022-09-23T06:05:37;11.48;;;6.55;;
75169;SDS011;63749;49.186;9.222;2022-09-23T06:08:02;10.93;;;7.20;;
75169;SDS011;63749;49.186;9.222;2022-09-23T06:10:27;13.33;;;7.40;;
75169;SDS011;63749;49.186;9.222;2022-09-23T06:12:53;12.83;;;6.87;;
75169;SDS011;63749;49.186;9.222;2022-09-23T06:15:18;10.93;;;7.40;;
75169;SDS011;63749;49.186;9.222;2022-09-23T06:17:47;11.00;;;7.07;;
75169;SDS011;63749;49.186;9.222;2022-09-23T06:20:13;12.43;;;7.63;;
75169;SDS011;63749;49.186;9.222;2022-09-23T06:22:38;17.02;;;8.02;;
75169;SDS011;63749;49.186;9.222;2022-09-23T06:25:04;9.93;;;7.47;;
75169;SDS011;63749;49.186;9.222;2022-09-23T06:27:29;11.50;;;7.30;;
75169;SDS011;63749;49.186;9.222;2022-09-23T06:29:55;17.05;;;8.20;;
75169;SDS011;63749;49.186;9.222;2022-09-23T06:32:21;14.23;;;8.17;;
75169;SDS011;63749;49.186;9.222;2022-09-23T06:34:47;11.47;;;7.50;;
75169;SDS011;63749;49.186;9.222;2022-09-23T06:37:13;12.37;;;7.83;;
75169;SDS011;63749;49.186;9.222;2022-09-23T06:39:39;13.13;;;7.53;;
75169;SDS011;63749;49.186;9.222;2022-09-23T06:42:04;10.67;;;7.30;;
75169;SDS011;63749;49.186;9.222;2022-09-23T06:44:30;12.13;;;7.57;;
75169;SDS011;63749;49.186;9.222;2022-09-23T06:46:55;11.73;;;7.47;;
75169;SDS011;63749;49.186;9.222;2022-09-23T06:49:21;11.27;;;7.40;;
75169;SDS011;63749;49.186;9.222;2022-09-23T06:51:46;11.05;;;6.75;;
75169;SDS011;63749;49.186;9.222;2022-09-23T06:54:12;12.53;;;7.00;;
75169;SDS011;63749;49.186;9.222;2022-09-23T06:56:37;14.20;;;6.87;;
75169;SDS011;63749;49.186;9.222;2022-09-23T06:59:03;9.43;;;6.57;;
75169;SDS011;63749;49.186;9.222;2022-09-23T07:01:29;9.13;;;6.55;;
75169;SDS011;63749;49.186;9.222;2022-09-23T07:03:54;15.00;;;6.80;;
75169;SDS011;63749;49.186;9.222;2022-09-23T07:06:20;13.10;;;6.50;;
75169;SDS011;63749;49.186;9.222;2022-09-23T07:08:45;11.73;;;6.20;;
75169;SDS011;63749;49.186;9.222;2022-09-23T07:11:11;10.75;;;6.47;;
75169;SDS011;63749;49.186;9.222;2022-09-23T07:13:37;9.63;;;6.60;;
75169;SDS011;63749;49.186;9.222;2022-09-23T07:16:04;9.40;;;6.40;;
75169;SDS011;63749;49.186;9.222;2022-09-23T07:18:31;11.05;;;6.60;;
75169;SDS011;63749;49.186;9.222;2022-09-23T07:21:03;9.48;;;6.60;;
75169;SDS011;63749;49.186;9.222;2022-09-23T07:23:32;9.83;;;6.70;;
75169;SDS011;63749;49.186;9.222;2022-09-23T07:25:58;9.73;;;6.30;;
75169;SDS011;63749;49.186;9.222;2022-09-23T07:28:23;11.30;;;6.30;;
75169;SDS011;63749;49.186;9.222;2022-09-23T07:30:53;11.38;;;6.50;;
75169;SDS011;63749;49.186;9.222;2022-09-23T07:33:18;10.10;;;6.00;;
75169;SDS011;63749;49.186;9.222;2022-09-23T07:35:43;9.23;;;6.03;;
75169;SDS011;63749;49.186;9.222;2022-09-23T07:38:09;10.97;;;6.30;;
75169;SDS011;63749;49.186;9.222;2022-09-23T07:40:35;9.25;;;6.07;;
75169;SDS011;63749;49.186;9.222;2022-09-23T07:43:03;10.05;;;6.85;;
75169;SDS011;63749;49.186;9.222;2022-09-23T07:45:29;9.73;;;6.30;;
75169;SDS011;63749;49.186;9.222;2022-09-23T07:47:57;13.65;;;6.57;;
75169;SDS011;63749;49.186;9.222;2022-09-23T07:50:23;9.20;;;5.85;;
75169;SDS011;63749;49.186;9.222;2022-09-23T07:52:48;8.40;;;5.80;;
75169;SDS011;63749;49.186;9.222;2022-09-23T07:55:17;9.32;;;6.10;;
75169;SDS011;63749;49.186;9.222;2022-09-23T07:57:43;8.97;;;5.87;;
75169;SDS011;63749;49.186;9.222;2022-09-23T08:00:09;9.55;;;6.00;;
75169;SDS011;63749;49.186;9.222;2022-09-23T08:02:37;11.10;;;6.30;;
75169;SDS011;63749;49.186;9.222;2022-09-23T08:05:02;9.50;;;6.33;;
75169;SDS011;63749;49.186;9.222;2022-09-23T08:07:29;8.50;;;6.43;;
75169;SDS011;63749;49.186;9.222;2022-09-23T08:09:58;11.63;;;6.50;;
75169;SDS011;63749;49.186;9.222;2022-09-23T08:12:24;11.87;;;6.50;;
75169;SDS011;63749;49.186;9.222;2022-09-23T08:14:49;9.70;;;5.83;;
75169;SDS011;63749;49.186;9.222;2022-09-23T08:17:14;12.35;;;6.13;;
75169;SDS011;63749;49.186;9.222;2022-09-23T08:19:40;10.30;;;6.43;;
75169;SDS011;63749;49.186;9.222;2022-09-23T08:22:05;9.80;;;6.33;;
75169;SDS011;63749;49.186;9.222;2022-09-23T08:24:31;7.70;;;5.47;;
75169;SDS011;63749;49.186;9.222;2022-09-23T08:26:56;11.73;;;6.30;;
75169;SDS011;63749;49.186;9.222;2022-09-23T08:29:22;8.90;;;6.23;;
75169;SDS011;63749;49.186;9.222;2022-09-23T08:31:50;11.70;;;5.70;;
75169;SDS011;63749;49.186;9.222;2022-09-23T08:34:17;9.60;;;5.50;;
75169;SDS011;63749;49.186;9.222;2022-09-23T08:36:44;7.13;;;5.23;;
75169;SDS011;63749;49.186;9.222;2022-09-23T08:39:13;8.07;;;5.40;;
75169;SDS011;63749;49.186;9.222;2022-09-23T08:44:22;7.93;;;4.78;;
75169;SDS011;63749;49.186;9.222;2022-09-23T08:47:21;8.02;;;4.78;;
75169;SDS011;63749;49.186;9.222;2022-09-23T08:50:04;7.63;;;4.60;;
75169;SDS011;63749;49.186;9.222;2022-09-23T08:52:38;6.85;;;4.88;;
75169;SDS011;63749;49.186;9.222;2022-09-23T08:55:10;10.23;;;4.72;;
75169;SDS011;63749;49.186;9.222;2022-09-23T09:00:40;11.85;;;5.10;;
75169;SDS011;63749;49.186;9.222;2022-09-23T09:03:14;9.00;;;5.10;;
75169;SDS011;63749;49.186;9.222;2022-09-23T09:05:44;8.10;;;4.75;;
75169;SDS011;63749;49.186;9.222;2022-09-23T09:08:11;7.40;;;4.72;;
75169;SDS011;63749;49.186;9.222;2022-09-23T09:10:48;6.78;;;5.15;;
75169;SDS011;63749;49.186;9.222;2022-09-23T09:13:23;8.10;;;4.93;;
75169;SDS011;63749;49.186;9.222;2022-09-23T09:16:01;9.17;;;5.07;;
75169;SDS011;63749;49.186;9.222;2022-09-23T09:18:53;9.20;;;4.57;;
75169;SDS011;63749;49.186;9.222;2022-09-23T09:21:24;12.32;;;5.40;;
75169;SDS011;63749;49.186;9.222;2022-09-23T09:24:06;7.40;;;4.90;;
75169;SDS011;63749;49.186;9.222;2022-09-23T09:26:40;12.63;;;5.25;;
75169;SDS011;63749;49.186;9.222;2022-09-23T09:29:19;9.20;;;5.30;;
75169;SDS011;63749;49.186;9.222;2022-09-23T09:31:50;7.68;;;5.20;;
75169;SDS011;63749;49.186;9.222;2022-09-23T09:40:11;9.02;;;5.15;;
75169;SDS011;63749;49.186;9.222;2022-09-23T09:42:38;9.10;;;5.20;;
75169;SDS011;63749;49.186;9.222;2022-09-23T09:45:27;9.65;;;5.03;;
75169;SDS011;63749;49.186;9.222;2022-09-23T09:48:16;14.93;;;5.30;;
75169;SDS011;63749;49.186;9.222;2022-09-23T09:50:51;14.43;;;5.82;;
75169;SDS011;63749;49.186;9.222;2022-09-23T10:01:27;8.35;;;4.80;;
75169;SDS011;63749;49.186;9.222;2022-09-23T10:03:57;9.10;;;4.93;;
75169;SDS011;63749;49.186;9.222;2022-09-23T10:06:26;10.35;;;5.10;;
75169;SDS011;63749;49.186;9.222;2022-09-23T10:11:37;8.05;;;4.63;;
75169;SDS011;63749;49.186;9.222;2022-09-23T10:14:11;8.63;;;4.55;;
75169;SDS011;63749;49.186;9.222;2022-09-23T10:16:41;8.35;;;4.63;;
75169;SDS011;63749;49.186;9.222;2022-09-23T10:19:23;9.10;;;4.72;;
75169;SDS011;63749;49.186;9.222;2022-09-23T10:21:55;9.87;;;4.37;;
75169;SDS011;63749;49.186;9.222;2022-09-23T10:24:28;8.35;;;4.38;;
75169;SDS011;63749;49.186;9.222;2022-09-23T10:29:32;8.52;;;4.30;;
75169;SDS011;63749;49.186;9.222;2022-09-23T10:34:58;5.37;;;4.07;;
75169;SDS011;63749;49.186;9.222;2022-09-23T10:40:11;6.45;;;3.80;;
75169;SDS011;63749;49.186;9.222;2022-09-23T11:00:18;6.90;;;3.93;;
75169;SDS011;63749;49.186;9.222;2022-09-23T11:16:35;5.03;;;3.70;;
75169;SDS011;63749;49.186;9.222;2022-09-23T11:19:20;8.10;;;3.88;;
75169;SDS011;63749;49.186;9.222;2022-09-23T11:24:50;8.35;;;3.75;;
75169;SDS011;63749;49.186;9.222;2022-09-23T11:27:44;5.32;;;4.00;;
75169;SDS011;63749;49.186;9.222;2022-09-23T11:30:30;9.00;;;4.22;;
75169;SDS011;63749;49.186;9.222;2022-09-23T11:35:54;8.10;;;3.30;;
75169;SDS011;63749;49.186;9.222;2022-09-23T11:38:24;6.30;;;3.47;;
75169;SDS011;63749;49.186;9.222;2022-09-23T11:40:59;8.68;;;4.00;;
75169;SDS011;63749;49.186;9.222;2022-09-23T11:43:33;8.52;;;3.65;;
75169;SDS011;63749;49.186;9.222;2022-09-23T11:46:08;7.13;;;3.65;;
75169;SDS011;63749;49.186;9.222;2022-09-23T11:48:41;5.20;;;3.80;;
75169;SDS011;63749;49.186;9.222;2022-09-23T11:51:14;5.90;;;4.05;;
75169;SDS011;63749;49.186;9.222;2022-09-23T11:53:50;7.30;;;3.83;;
75169;SDS011;63749;49.186;9.222;2022-09-23T11:56:31;6.32;;;3.88;;
75169;SDS011;63749;49.186;9.222;2022-09-23T12:04:43;6.60;;;3.88;;
75169;SDS011;63749;49.186;9.222;2022-09-23T12:07:12;6.55;;;4.20;;
75169;SDS011;63749;49.186;9.222;2022-09-23T12:09:54;9.02;;;3.72;;
75169;SDS011;63749;49.186;9.222;2022-09-23T12:15:08;5.43;;;3.30;;
75169;SDS011;63749;49.186;9.222;2022-09-23T12:20:31;7.07;;;3.47;;
75169;SDS011;63749;49.186;9.222;2022-09-23T12:26:19;5.07;;;3.30;;
75169;SDS011;63749;49.186;9.222;2022-09-23T12:28:47;4.30;;;3.43;;
75169;SDS011;63749;49.186;9.222;2022-09-23T12:31:16;5.28;;;3.30;;
75169;SDS011;63749;49.186;9.222;2022-09-23T12:33:48;6.60;;;3.33;;
75169;SDS011;63749;49.186;9.222;2022-09-23T12:36:16;7.85;;;4.07;;
75169;SDS011;63749;49.186;9.222;2022-09-23T12:39:33;7.55;;;3.63;;
75169;SDS011;63749;49.186;9.222;2022-09-23T12:41:48;8.63;;;3.40;;
75169;SDS011;63749;49.186;9.222;2022-09-23T12:46:47;6.53;;;3.83;;
75169;SDS011;63749;49.186;9.222;2022-09-23T12:49:56;5.93;;;3.78;;
75169;SDS011;63749;49.186;9.222;2022-09-23T12:52:23;4.80;;;3.47;;
75169;SDS011;63749;49.186;9.222;2022-09-23T12:54:53;7.43;;;4.07;;
75169;SDS011;63749;49.186;9.222;2022-09-23T13:08:07;5.63;;;4.38;;
75169;SDS011;63749;49.186;9.222;2022-09-23T13:13:05;5.43;;;4.73;;
75169;SDS011;63749;49.186;9.222;2022-09-23T13:15:39;7.28;;;4.20;;
75169;SDS011;63749;49.186;9.222;2022-09-23T13:20:48;9.85;;;4.40;;
75169;SDS011;63749;49.186;9.222;2022-09-23T13:23:24;8.15;;;4.65;;
75169;SDS011;63749;49.186;9.222;2022-09-23T13:25:52;9.10;;;4.38;;
75169;SDS011;63749;49.186;9.222;2022-09-23T13:28:28;6.90;;;3.97;;
75169;SDS011;63749;49.186;9.222;2022-09-23T13:30:57;4.97;;;4.20;;
75169;SDS011;63749;49.186;9.222;2022-09-23T13:33:42;5.20;;;3.80;;
75169;SDS011;63749;49.186;9.222;2022-09-23T13:36:15;6.05;;;3.90;;
75169;SDS011;63749;49.186;9.222;2022-09-23T13:38:42;7.10;;;3.80;;
75169;SDS011;63749;49.186;9.222;2022-09-23T13:41:17;7.63;;;3.50;;
75169;SDS011;63749;49.186;9.222;2022-09-23T13:43:46;6.87;;;3.30;;
75169;SDS011;63749;49.186;9.222;2022-09-23T13:46:18;8.15;;;3.10;;
75169;SDS011;63749;49.186;9.222;2022-09-23T13:48:46;4.13;;;3.60;;
75169;SDS011;63749;49.186;9.222;2022-09-23T13:51:17;7.22;;;4.00;;
75169;SDS011;63749;49.186;9.222;2022-09-23T13:53:55;4.65;;;3.40;;
75169;SDS011;63749;49.186;9.222;2022-09-23T13:56:23;5.20;;;4.43;;
75169;SDS011;63749;49.186;9.222;2022-09-23T13:58:50;7.55;;;4.00;;
75169;SDS011;63749;49.186;9.222;2022-09-23T14:01:29;5.07;;;3.80;;
75169;SDS011;63749;49.186;9.222;2022-09-23T14:03:56;7.35;;;3.92;;
75169;SDS011;63749;49.186;9.222;2022-09-23T14:06:22;5.00;;;3.40;;
75169;SDS011;63749;49.186;9.222;2022-09-23T14:08:48;6.43;;;3.43;;
75169;SDS011;63749;49.186;9.222;2022-09-23T14:11:18;4.57;;;3.80;;
75169;SDS011;63749;49.186;9.222;2022-09-23T14:13:46;4.95;;;3.50;;
75169;SDS011;63749;49.186;9.222;2022-09-23T14:16:14;6.15;;;3.50;;
75169;SDS011;63749;49.186;9.222;2022-09-23T14:18:44;5.15;;;3.65;;
75169;SDS011;63749;49.186;9.222;2022-09-23T14:24:04;8.18;;;3.78;;
75169;SDS011;63749;49.186;9.222;2022-09-23T14:26:53;4.55;;;3.30;;
75169;SDS011;63749;49.186;9.222;2022-09-23T14:29:23;5.60;;;3.20;;
75169;SDS011;63749;49.186;9.222;2022-09-23T14:31:52;7.45;;;3.10;;
75169;SDS011;63749;49.186;9.222;2022-09-23T14:34:48;6.33;;;3.17;;
75169;SDS011;63749;49.186;9.222;2022-09-23T14:37:30;6.15;;;3.05;;
75169;SDS011;63749;49.186;9.222;2022-09-23T14:40:21;4.75;;;3.20;;
75169;SDS011;63749;49.186;9.222;2022-09-23T14:42:56;6.13;;;3.08;;
75169;SDS011;63749;49.186;9.222;2022-09-23T14:45:30;5.05;;;3.00;;
75169;SDS011;63749;49.186;9.222;2022-09-23T14:47:59;6.40;;;3.00;;
75169;SDS011;63749;49.186;9.222;2022-09-23T14:50:28;5.38;;;3.25;;
75169;SDS011;63749;49.186;9.222;2022-09-23T14:53:02;5.90;;;3.40;;
75169;SDS011;63749;49.186;9.222;2022-09-23T14:55:28;5.63;;;3.25;;
75169;SDS011;63749;49.186;9.222;2022-09-23T14:58:02;10.40;;;3.50;;
75169;SDS011;63749;49.186;9.222;2022-09-23T15:00:28;4.70;;;3.40;;
75169;SDS011;63749;49.186;9.222;2022-09-23T15:03:11;4.00;;;3.35;;
75169;SDS011;63749;49.186;9.222;2022-09-23T15:05:43;8.20;;;3.38;;
75169;SDS011;63749;49.186;9.222;2022-09-23T15:08:19;5.43;;;3.47;;
75169;SDS011;63749;49.186;9.222;2022-09-23T15:10:47;5.57;;;3.58;;
75169;SDS011;63749;49.186;9.222;2022-09-23T15:13:14;4.77;;;3.17;;
75169;SDS011;63749;49.186;9.222;2022-09-23T15:15:42;6.40;;;3.42;;
75169;SDS011;63749;49.186;9.222;2022-09-23T15:18:15;5.18;;;3.30;;
75169;SDS011;63749;49.186;9.222;2022-09-23T15:20:53;5.38;;;3.08;;
75169;SDS011;63749;49.186;9.222;2022-09-23T15:26:21;4.87;;;2.80;;
75169;SDS011;63749;49.186;9.222;2022-09-23T15:29:06;4.18;;;3.10;;
75169;SDS011;63749;49.186;9.222;2022-09-23T15:31:32;6.97;;;2.90;;
75169;SDS011;63749;49.186;9.222;2022-09-23T15:33:58;5.20;;;2.83;;
75169;SDS011;63749;49.186;9.222;2022-09-23T15:36:23;4.97;;;2.80;;
75169;SDS011;63749;49.186;9.222;2022-09-23T15:38:51;5.22;;;3.00;;
75169;SDS011;63749;49.186;9.222;2022-09-23T15:41:17;5.80;;;3.05;;
75169;SDS011;63749;49.186;9.222;2022-09-23T15:43:43;8.03;;;3.00;;
75169;SDS011;63749;49.186;9.222;2022-09-23T15:46:13;6.03;;;2.88;;
75169;SDS011;63749;49.186;9.222;2022-09-23T15:48:48;5.20;;;2.80;;
75169;SDS011;63749;49.186;9.222;2022-09-23T15:51:20;5.78;;;3.10;;
75169;SDS011;63749;49.186;9.222;2022-09-23T15:53:47;6.00;;;2.88;;
75169;SDS011;63749;49.186;9.222;2022-09-23T15:56:12;5.50;;;3.33;;
75169;SDS011;63749;49.186;9.222;2022-09-23T15:58:37;5.97;;;3.20;;
75169;SDS011;63749;49.186;9.222;2022-09-23T16:01:03;5.22;;;3.03;;
75169;SDS011;63749;49.186;9.222;2022-09-23T16:03:29;4.40;;;2.90;;
75169;SDS011;63749;49.186;9.222;2022-09-23T16:05:55;4.28;;;2.90;;
75169;SDS011;63749;49.186;9.222;2022-09-23T16:08:23;6.82;;;3.00;;
75169;SDS011;63749;49.186;9.222;2022-09-23T16:10:50;6.50;;;3.10;;
75169;SDS011;63749;49.186;9.222;2022-09-23T16:13:15;5.55;;;2.97;;
75169;SDS011;63749;49.186;9.222;2022-09-23T16:15:41;5.45;;;3.28;;
75169;SDS011;63749;49.186;9.222;2022-09-23T16:18:07;4.70;;;3.00;;
75169;SDS011;63749;49.186;9.222;2022-09-23T16:20:37;5.22;;;2.85;;
75169;SDS011;63749;49.186;9.222;2022-09-23T16:23:07;5.47;;;3.03;;
75169;SDS011;63749;49.186;9.222;2022-09-23T16:25:38;5.37;;;3.20;;
75169;SDS011;63749;49.186;9.222;2022-09-23T16:28:04;5.93;;;3.08;;
75169;SDS011;63749;49.186;9.222;2022-09-23T16:30:30;5.57;;;3.37;;
75169;SDS011;63749;49.186;9.222;2022-09-23T16:32:57;6.88;;;3.20;;
75169;SDS011;63749;49.186;9.222;2022-09-23T16:35:25;7.43;;;3.00;;
75169;SDS011;63749;49.186;9.222;2022-09-23T16:37:53;6.47;;;3.57;;
75169;SDS011;63749;49.186;9.222;2022-09-23T16:40:20;6.10;;;3.33;;
75169;SDS011;63749;49.186;9.222;2022-09-23T16:42:47;7.43;;;3.15;;
75169;SDS011;63749;49.186;9.222;2022-09-23T16:45:14;5.03;;;3.42;;
75169;SDS011;63749;49.186;9.222;2022-09-23T16:47:45;6.13;;;3.20;;
75169;SDS011;63749;49.186;9.222;2022-09-23T16:50:13;6.60;;;3.10;;
75169;SDS011;63749;49.186;9.222;2022-09-23T16:52:39;5.53;;;3.20;;
75169;SDS011;63749;49.186;9.222;2022-09-23T16:55:06;6.72;;;3.10;;
75169;SDS011;63749;49.186;9.222;2022-09-23T16:57:33;5.10;;;3.25;;
75169;SDS011;63749;49.186;9.222;2022-09-23T17:00:01;6.80;;;3.30;;
75169;SDS011;63749;49.186;9.222;2022-09-23T17:02:47;7.43;;;3.40;;
75169;SDS011;63749;49.186;9.222;2022-09-23T17:05:30;8.38;;;3.00;;
75169;SDS011;63749;49.186;9.222;2022-09-23T17:07:56;6.87;;;3.47;;
75169;SDS011;63749;49.186;9.222;2022-09-23T17:10:21;8.30;;;3.63;;
75169;SDS011;63749;49.186;9.222;2022-09-23T17:12:46;7.27;;;3.70;;
75169;SDS011;63749;49.186;9.222;2022-09-23T17:15:12;8.40;;;3.63;;
75169;SDS011;63749;49.186;9.222;2022-09-23T17:17:37;8.50;;;4.00;;
75169;SDS011;63749;49.186;9.222;2022-09-23T17:20:03;7.47;;;4.50;;
75169;SDS011;63749;49.186;9.222;2022-09-23T17:22:30;7.63;;;4.40;;
75169;SDS011;63749;49.186;9.222;2022-09-23T17:24:57;6.17;;;4.43;;
75169;SDS011;63749;49.186;9.222;2022-09-23T17:27:24;10.13;;;4.43;;
75169;SDS011;63749;49.186;9.222;2022-09-23T17:29:49;9.00;;;4.60;;